Portada
METAR-TAF:

METAR-TAF

Aeroports :

Vlissingen, Països Baixos

latitud: 51-27N, longitud: 3-36E, altitud: 10 m

Observació

L'informe es va fer fa 31 minuts, a les 20:25 UTC
Vent 8 kt del Nord/Nord-Est
Temperatura 23°C
Humitat 61%
Pressió 1018 hPa
Visibilitat 10 km o més

METAR: EHFS 242025Z AUTO 03008KT 9999 NSC 23/15 Q1018 W///H///

Hora: 22:56 (20:56 UTC)


TAF: manca

Observacions i pronòstics meteorològics de més de 4000 aeroports (METAR i TAF).

Les estacions disponibles són els punts grocs i vermells al mapa.

Posi el ratolí al punt desitjat per veure el nom de l'estació.

Feu clic per veure les observacions i els pronòstics meteorològics.

Per canviar el mapa: feu clic els botons verds amb una creu de color negre per apropar; al botó verd amb un guió per allunyar la imatge; o en les fletxes verdes per a mapes adjacents.


METAR-TAF: